Flight Track Log - Related Links

Times and Time Zones

All times are in EDT time to prevent confusion due to time zone crossing. See the UAL5911 flight status page for this flight to view local times or setup timezone preferences in your user account.

Time Position Orientation Groundspeed Altitude Reporting Facility
EDT Latitude Longitude Course Direction KTS MPH feet Rate Location/Type
Mon 03:53:02 PM 40.6717 -89.7564 303° West 253 291 4,800  Level Chicago Center
Mon 03:54:00 PM 41.1310 -89.5865 North  Level FlightAware Approximate
Mon 03:54:04 PM 40.7450 -89.7569 360° North 269 310 7,000  Level Chicago Center
Mon 03:55:00 PM 41.1792 -89.5104 62° Northeast  Level FlightAware Approximate
Mon 03:55:06 PM 40.8244 -89.7597 358° North 287 330 10,100  Level Chicago Center
Mon 03:56:00 PM 41.2157 -89.4139 63° Northeast  Level FlightAware Approximate
Mon 03:56:08 PM 40.9133 -89.7428 North 338 389 11,000  Level Chicago Center
Mon 03:57:00 PM 41.2544 -89.3176 60° Northeast  Level FlightAware Approximate
Mon 03:57:09 PM 41.0064 -89.6831 26° Northeast 371 427 12,300  Level Chicago Center
Mon 03:58:11 PM 41.1239 -89.6103 25° Northeast 385 443 14,100 1,306 Climbing Chicago Center
Mon 03:59:13 PM 41.1964 -89.5000 49° Northeast 403 464 15,000 435 Climbing Chicago Center
Mon 04:00:15 PM 41.2503 -89.3669 62° Northeast 410 472 15,000 -145 Level Chicago Center
Mon 04:01:17 PM 41.3042 -89.2322 62° Northeast 412 474 14,700 -726 Descending Chicago Center
Mon 04:02:19 PM 41.3581 -89.0939 63° Northeast 401 461 13,500 -1,113 Descending Chicago Center
Mon 04:03:21 PM 41.4097 -88.9669 61° Northeast 394 453 12,400 -1,065 Descending Chicago Center
Mon 04:04:23 PM 41.4600 -88.8389 62° Northeast 391 450 11,300 -677 Descending Chicago Center
Mon 04:05:25 PM 41.5083 -88.7189 62° Northeast 374 430 11,000 -146 Descending Chicago Center
Mon 04:06:26 PM 41.5544 -88.6003 63° Northeast 302 348 11,000  Level Chicago Center
Mon 04:07:28 PM 41.5933 -88.5014 62° Northeast 302 348 11,000 -532 Level Chicago Center
Mon 04:08:30 PM 41.6414 -88.4092 55° Northeast 304 350 9,900 -1,452 Descending Chicago Center
Mon 04:09:32 PM 41.7081 -88.3553 31° Northeast 296 341 8,000 -1,403 Descending Chicago Center
Mon 04:10:34 PM 41.7847 -88.3275 15° North 286 329 7,000 -677 Descending Chicago Center
Mon 04:11:36 PM 41.8522 -88.3156 North 252 290 6,600 -968 Descending Chicago Center
Mon 04:12:38 PM 41.9314 -88.3250 355° North 241 277 5,000 -1,258 Descending Chicago Center
Mon 04:13:40 PM 41.9661 -88.2644 52° Northeast 243 280 4,000 -484 Descending Chicago Center
Mon 04:14:42 PM 41.9675 -88.1956 88° East 207 238 4,000 -242 Level Chicago Center
Mon 04:15:44 PM 41.9681 -88.1253 89° East 194 223 3,500 -484 Descending Chicago Center

Login

Don't have an account? Register now (free) for customized features, flight alerts, and more!